sensor_id;sensor_type;location;lat;lon;timestamp;temperature;humidity
27270;DHT22;14769;56.934;24.176;2022-08-01T00:00:25;16.30;99.90
27270;DHT22;14769;56.934;24.176;2022-08-01T00:01:27;16.30;99.90
27270;DHT22;14769;56.934;24.176;2022-08-01T00:02:29;16.30;99.90
27270;DHT22;14769;56.934;24.176;2022-08-01T00:03:32;16.30;99.90
27270;DHT22;14769;56.934;24.176;2022-08-01T00:04:34;16.30;99.90
27270;DHT22;14769;56.934;24.176;2022-08-01T00:05:36;16.30;99.90
27270;DHT22;14769;56.934;24.176;2022-08-01T00:06:38;16.20;99.90
27270;DHT22;14769;56.934;24.176;2022-08-01T00:07:40;16.20;99.90
27270;DHT22;14769;56.934;24.176;2022-08-01T00:08:41;16.20;99.90
27270;DHT22;14769;56.934;24.176;2022-08-01T00:09:43;16.20;99.90
27270;DHT22;14769;56.934;24.176;2022-08-01T00:10:45;16.20;99.90
27270;DHT22;14769;56.934;24.176;2022-08-01T00:11:47;16.20;99.90
27270;DHT22;14769;56.934;24.176;2022-08-01T00:13:00;16.20;99.90
27270;DHT22;14769;56.934;24.176;2022-08-01T00:14:02;16.10;99.90
27270;DHT22;14769;56.934;24.176;2022-08-01T00:15:05;16.10;99.90
27270;DHT22;14769;56.934;24.176;2022-08-01T00:16:08;16.10;99.90
27270;DHT22;14769;56.934;24.176;2022-08-01T00:17:10;16.10;99.90
27270;DHT22;14769;56.934;24.176;2022-08-01T00:18:11;16.00;99.90
27270;DHT22;14769;56.934;24.176;2022-08-01T00:19:13;16.00;99.90
27270;DHT22;14769;56.934;24.176;2022-08-01T00:20:15;16.00;99.90
27270;DHT22;14769;56.934;24.176;2022-08-01T00:21:17;16.00;99.90
27270;DHT22;14769;56.934;24.176;2022-08-01T00:22:19;16.00;99.90
27270;DHT22;14769;56.934;24.176;2022-08-01T00:23:21;16.00;99.90
27270;DHT22;14769;56.934;24.176;2022-08-01T00:24:22;16.00;99.90
27270;DHT22;14769;56.934;24.176;2022-08-01T00:25:24;16.00;99.90
27270;DHT22;14769;56.934;24.176;2022-08-01T00:26:35;15.90;99.90
27270;DHT22;14769;56.934;24.176;2022-08-01T00:27:36;15.90;99.90
27270;DHT22;14769;56.934;24.176;2022-08-01T00:28:38;15.90;99.90
27270;DHT22;14769;56.934;24.176;2022-08-01T00:29:41;15.80;99.90
27270;DHT22;14769;56.934;24.176;2022-08-01T00:31:02;15.80;99.90
27270;DHT22;14769;56.934;24.176;2022-08-01T00:32:04;15.80;99.90
27270;DHT22;14769;56.934;24.176;2022-08-01T00:33:07;15.80;99.90
27270;DHT22;14769;56.934;24.176;2022-08-01T00:34:09;15.80;99.90
27270;DHT22;14769;56.934;24.176;2022-08-01T00:35:11;15.80;99.90
27270;DHT22;14769;56.934;24.176;2022-08-01T00:36:13;15.80;99.90
27270;DHT22;14769;56.934;24.176;2022-08-01T00:37:15;15.80;99.90
27270;DHT22;14769;56.934;24.176;2022-08-01T00:38:17;15.80;99.90
27270;DHT22;14769;56.934;24.176;2022-08-01T00:39:19;15.80;99.90
27270;DHT22;14769;56.934;24.176;2022-08-01T00:40:21;15.70;99.90
27270;DHT22;14769;56.934;24.176;2022-08-01T00:41:22;15.70;99.90
27270;DHT22;14769;56.934;24.176;2022-08-01T00:42:25;15.70;99.90
27270;DHT22;14769;56.934;24.176;2022-08-01T00:43:26;15.70;99.90
27270;DHT22;14769;56.934;24.176;2022-08-01T00:44:28;15.70;99.90
27270;DHT22;14769;56.934;24.176;2022-08-01T00:45:30;15.70;99.90
27270;DHT22;14769;56.934;24.176;2022-08-01T00:46:32;15.70;99.90
27270;DHT22;14769;56.934;24.176;2022-08-01T00:47:34;15.70;99.90
27270;DHT22;14769;56.934;24.176;2022-08-01T00:48:36;15.60;99.90
27270;DHT22;14769;56.934;24.176;2022-08-01T00:49:38;15.70;99.90
27270;DHT22;14769;56.934;24.176;2022-08-01T00:50:40;15.70;99.90
27270;DHT22;14769;56.934;24.176;2022-08-01T00:51:42;15.70;99.90
27270;DHT22;14769;56.934;24.176;2022-08-01T00:52:44;15.70;99.90
27270;DHT22;14769;56.934;24.176;2022-08-01T00:53:53;15.60;99.90
27270;DHT22;14769;56.934;24.176;2022-08-01T00:54:55;15.60;99.90
27270;DHT22;14769;56.934;24.176;2022-08-01T00:55:57;15.60;99.90
27270;DHT22;14769;56.934;24.176;2022-08-01T00:56:59;15.60;99.90
27270;DHT22;14769;56.934;24.176;2022-08-01T00:58:01;15.60;99.90
27270;DHT22;14769;56.934;24.176;2022-08-01T00:59:07;15.60;99.90
27270;DHT22;14769;56.934;24.176;2022-08-01T01:00:10;15.60;99.90
27270;DHT22;14769;56.934;24.176;2022-08-01T01:01:13;15.60;99.90
27270;DHT22;14769;56.934;24.176;2022-08-01T01:02:15;15.60;99.90
27270;DHT22;14769;56.934;24.176;2022-08-01T01:03:17;15.60;99.90
27270;DHT22;14769;56.934;24.176;2022-08-01T01:04:20;15.60;99.90
27270;DHT22;14769;56.934;24.176;2022-08-01T01:05:21;15.60;99.90
27270;DHT22;14769;56.934;24.176;2022-08-01T01:06:57;15.60;99.90
27270;DHT22;14769;56.934;24.176;2022-08-01T01:08:04;15.60;99.90
27270;DHT22;14769;56.934;24.176;2022-08-01T01:09:33;15.50;99.90
27270;DHT22;14769;56.934;24.176;2022-08-01T01:10:56;15.50;99.90
27270;DHT22;14769;56.934;24.176;2022-08-01T01:15:59;15.40;99.90
27270;DHT22;14769;56.934;24.176;2022-08-01T01:17:03;15.40;99.90
27270;DHT22;14769;56.934;24.176;2022-08-01T01:18:07;15.40;99.90
27270;DHT22;14769;56.934;24.176;2022-08-01T01:19:16;15.40;99.90
27270;DHT22;14769;56.934;24.176;2022-08-01T01:20:21;15.40;99.90
27270;DHT22;14769;56.934;24.176;2022-08-01T01:22:36;15.40;99.90
27270;DHT22;14769;56.934;24.176;2022-08-01T01:24:10;15.40;99.90
27270;DHT22;14769;56.934;24.176;2022-08-01T01:27:51;15.40;99.90
27270;DHT22;14769;56.934;24.176;2022-08-01T01:29:13;15.40;99.90
27270;DHT22;14769;56.934;24.176;2022-08-01T01:30:17;15.40;99.90
27270;DHT22;14769;56.934;24.176;2022-08-01T01:32:35;15.30;99.90
27270;DHT22;14769;56.934;24.176;2022-08-01T01:33:40;15.40;99.90
27270;DHT22;14769;56.934;24.176;2022-08-01T01:34:49;15.30;99.90
27270;DHT22;14769;56.934;24.176;2022-08-01T01:35:57;15.40;99.90
27270;DHT22;14769;56.934;24.176;2022-08-01T01:37:02;15.30;99.90
27270;DHT22;14769;56.934;24.176;2022-08-01T01:38:09;15.30;99.90
27270;DHT22;14769;56.934;24.176;2022-08-01T01:39:13;15.30;99.90
27270;DHT22;14769;56.934;24.176;2022-08-01T01:40:16;15.30;99.90
27270;DHT22;14769;56.934;24.176;2022-08-01T01:41:19;15.30;99.90
27270;DHT22;14769;56.934;24.176;2022-08-01T01:42:25;15.30;99.90
27270;DHT22;14769;56.934;24.176;2022-08-01T01:43:29;15.30;99.90
27270;DHT22;14769;56.934;24.176;2022-08-01T01:44:35;15.30;99.90
27270;DHT22;14769;56.934;24.176;2022-08-01T01:45:39;15.30;99.90
27270;DHT22;14769;56.934;24.176;2022-08-01T01:46:42;15.30;99.90
27270;DHT22;14769;56.934;24.176;2022-08-01T01:47:45;15.30;99.90
27270;DHT22;14769;56.934;24.176;2022-08-01T01:48:47;15.30;99.90
27270;DHT22;14769;56.934;24.176;2022-08-01T01:49:51;15.30;99.90
27270;DHT22;14769;56.934;24.176;2022-08-01T01:50:54;15.30;99.90
27270;DHT22;14769;56.934;24.176;2022-08-01T01:51:58;15.30;99.90
27270;DHT22;14769;56.934;24.176;2022-08-01T01:53:05;15.30;99.90
27270;DHT22;14769;56.934;24.176;2022-08-01T01:54:15;15.30;99.90
27270;DHT22;14769;56.934;24.176;2022-08-01T01:55:19;15.30;99.90
27270;DHT22;14769;56.934;24.176;2022-08-01T01:56:23;15.30;99.90
27270;DHT22;14769;56.934;24.176;2022-08-01T01:57:26;15.30;99.90
27270;DHT22;14769;56.934;24.176;2022-08-01T01:58:29;15.30;99.90
27270;DHT22;14769;56.934;24.176;2022-08-01T01:59:35;15.30;99.90
27270;DHT22;14769;56.934;24.176;2022-08-01T02:00:39;15.30;99.90
27270;DHT22;14769;56.934;24.176;2022-08-01T02:01:42;15.30;99.90
27270;DHT22;14769;56.934;24.176;2022-08-01T02:03:07;15.30;99.90
27270;DHT22;14769;56.934;24.176;2022-08-01T02:04:09;15.30;99.90
27270;DHT22;14769;56.934;24.176;2022-08-01T02:05:12;15.30;99.90
27270;DHT22;14769;56.934;24.176;2022-08-01T02:06:16;15.30;99.90
27270;DHT22;14769;56.934;24.176;2022-08-01T02:07:21;15.30;99.90
27270;DHT22;14769;56.934;24.176;2022-08-01T02:08:24;15.30;99.90
27270;DHT22;14769;56.934;24.176;2022-08-01T02:09:28;15.30;99.90
27270;DHT22;14769;56.934;24.176;2022-08-01T02:10:31;15.40;99.90
27270;DHT22;14769;56.934;24.176;2022-08-01T02:11:35;15.40;99.90
27270;DHT22;14769;56.934;24.176;2022-08-01T02:12:59;15.40;99.90
27270;DHT22;14769;56.934;24.176;2022-08-01T02:14:03;15.40;99.90
27270;DHT22;14769;56.934;24.176;2022-08-01T02:15:06;15.40;99.90
27270;DHT22;14769;56.934;24.176;2022-08-01T02:16:08;15.40;99.90
27270;DHT22;14769;56.934;24.176;2022-08-01T02:17:16;15.40;99.90
27270;DHT22;14769;56.934;24.176;2022-08-01T02:18:18;15.40;99.90
27270;DHT22;14769;56.934;24.176;2022-08-01T02:19:24;15.50;99.90
27270;DHT22;14769;56.934;24.176;2022-08-01T02:20:29;15.50;99.90
27270;DHT22;14769;56.934;24.176;2022-08-01T02:21:48;15.50;99.90
27270;DHT22;14769;56.934;24.176;2022-08-01T02:22:55;15.50;99.90
27270;DHT22;14769;56.934;24.176;2022-08-01T02:24:06;15.50;99.90
27270;DHT22;14769;56.934;24.176;2022-08-01T02:25:22;15.50;99.90
27270;DHT22;14769;56.934;24.176;2022-08-01T02:26:26;15.50;99.90
27270;DHT22;14769;56.934;24.176;2022-08-01T02:27:34;15.40;99.90
27270;DHT22;14769;56.934;24.176;2022-08-01T02:28:41;15.50;99.90
27270;DHT22;14769;56.934;24.176;2022-08-01T02:29:45;15.50;99.90
27270;DHT22;14769;56.934;24.176;2022-08-01T02:30:49;15.50;99.90
27270;DHT22;14769;56.934;24.176;2022-08-01T02:31:56;15.50;99.90
27270;DHT22;14769;56.934;24.176;2022-08-01T02:33:12;15.50;99.90
27270;DHT22;14769;56.934;24.176;2022-08-01T02:34:18;15.50;99.90
27270;DHT22;14769;56.934;24.176;2022-08-01T02:35:24;15.50;99.90
27270;DHT22;14769;56.934;24.176;2022-08-01T02:36:30;15.50;99.90
27270;DHT22;14769;56.934;24.176;2022-08-01T02:37:36;15.60;99.90
27270;DHT22;14769;56.934;24.176;2022-08-01T02:38:46;15.50;99.90
27270;DHT22;14769;56.934;24.176;2022-08-01T02:39:50;15.60;99.90
27270;DHT22;14769;56.934;24.176;2022-08-01T02:40:57;15.60;99.90
27270;DHT22;14769;56.934;24.176;2022-08-01T02:42:04;15.60;99.90
27270;DHT22;14769;56.934;24.176;2022-08-01T02:43:09;15.60;99.90
27270;DHT22;14769;56.934;24.176;2022-08-01T02:44:24;15.60;99.90
27270;DHT22;14769;56.934;24.176;2022-08-01T02:45:28;15.60;99.90
27270;DHT22;14769;56.934;24.176;2022-08-01T02:46:45;15.60;99.90
27270;DHT22;14769;56.934;24.176;2022-08-01T02:47:50;15.60;99.90
27270;DHT22;14769;56.934;24.176;2022-08-01T02:48:53;15.60;99.90
27270;DHT22;14769;56.934;24.176;2022-08-01T02:49:58;15.60;99.90
27270;DHT22;14769;56.934;24.176;2022-08-01T02:51:02;15.60;99.90
27270;DHT22;14769;56.934;24.176;2022-08-01T02:52:08;15.60;99.90
27270;DHT22;14769;56.934;24.176;2022-08-01T02:53:12;15.70;99.90
27270;DHT22;14769;56.934;24.176;2022-08-01T02:54:17;15.60;99.90
27270;DHT22;14769;56.934;24.176;2022-08-01T02:55:20;15.70;99.90
27270;DHT22;14769;56.934;24.176;2022-08-01T02:56:23;15.70;99.90
27270;DHT22;14769;56.934;24.176;2022-08-01T02:57:26;15.70;99.90
27270;DHT22;14769;56.934;24.176;2022-08-01T02:58:46;15.70;99.90
27270;DHT22;14769;56.934;24.176;2022-08-01T02:59:51;15.70;99.90
27270;DHT22;14769;56.934;24.176;2022-08-01T03:00:57;15.70;99.90
27270;DHT22;14769;56.934;24.176;2022-08-01T03:02:01;15.70;99.90
27270;DHT22;14769;56.934;24.176;2022-08-01T03:03:06;15.70;99.90
27270;DHT22;14769;56.934;24.176;2022-08-01T03:04:10;15.70;99.90
27270;DHT22;14769;56.934;24.176;2022-08-01T03:05:13;15.70;99.90
27270;DHT22;14769;56.934;24.176;2022-08-01T03:06:17;15.70;99.90
27270;DHT22;14769;56.934;24.176;2022-08-01T03:07:20;15.70;99.90
27270;DHT22;14769;56.934;24.176;2022-08-01T03:08:23;15.70;99.90
27270;DHT22;14769;56.934;24.176;2022-08-01T03:09:27;15.70;99.90
27270;DHT22;14769;56.934;24.176;2022-08-01T03:10:31;15.70;99.90
27270;DHT22;14769;56.934;24.176;2022-08-01T03:11:37;15.80;99.90
27270;DHT22;14769;56.934;24.176;2022-08-01T03:12:41;15.70;99.90
27270;DHT22;14769;56.934;24.176;2022-08-01T03:13:48;15.80;99.90
27270;DHT22;14769;56.934;24.176;2022-08-01T03:14:53;15.80;99.90
27270;DHT22;14769;56.934;24.176;2022-08-01T03:15:57;15.80;99.90
27270;DHT22;14769;56.934;24.176;2022-08-01T03:17:01;15.70;99.90
27270;DHT22;14769;56.934;24.176;2022-08-01T03:18:06;15.80;99.90
27270;DHT22;14769;56.934;24.176;2022-08-01T03:19:10;15.80;99.90
27270;DHT22;14769;56.934;24.176;2022-08-01T03:20:14;15.80;99.90
27270;DHT22;14769;56.934;24.176;2022-08-01T03:21:18;15.80;99.90
27270;DHT22;14769;56.934;24.176;2022-08-01T03:22:25;15.80;99.90
27270;DHT22;14769;56.934;24.176;2022-08-01T03:23:27;15.80;99.90
27270;DHT22;14769;56.934;24.176;2022-08-01T03:24:39;15.80;99.90
27270;DHT22;14769;56.934;24.176;2022-08-01T03:25:43;15.70;99.90
27270;DHT22;14769;56.934;24.176;2022-08-01T03:26:46;15.80;99.90
27270;DHT22;14769;56.934;24.176;2022-08-01T03:27:54;15.80;99.90
27270;DHT22;14769;56.934;24.176;2022-08-01T03:29:01;15.80;99.90
27270;DHT22;14769;56.934;24.176;2022-08-01T03:30:05;15.80;99.90
27270;DHT22;14769;56.934;24.176;2022-08-01T03:31:08;15.80;99.90
27270;DHT22;14769;56.934;24.176;2022-08-01T03:32:11;15.90;99.90
27270;DHT22;14769;56.934;24.176;2022-08-01T03:33:14;15.90;99.90
27270;DHT22;14769;56.934;24.176;2022-08-01T03:34:16;15.90;99.90
27270;DHT22;14769;56.934;24.176;2022-08-01T03:35:19;15.80;99.90
27270;DHT22;14769;56.934;24.176;2022-08-01T03:36:26;15.90;99.90
27270;DHT22;14769;56.934;24.176;2022-08-01T03:37:36;15.90;99.90
27270;DHT22;14769;56.934;24.176;2022-08-01T03:39:01;15.90;99.90
27270;DHT22;14769;56.934;24.176;2022-08-01T03:40:39;15.90;99.90
27270;DHT22;14769;56.934;24.176;2022-08-01T03:41:46;15.80;99.90
27270;DHT22;14769;56.934;24.176;2022-08-01T03:43:01;15.80;99.90
27270;DHT22;14769;56.934;24.176;2022-08-01T03:44:10;15.80;99.90
27270;DHT22;14769;56.934;24.176;2022-08-01T03:45:18;15.90;99.90
27270;DHT22;14769;56.934;24.176;2022-08-01T03:46:26;15.90;99.90
27270;DHT22;14769;56.934;24.176;2022-08-01T03:47:32;15.90;99.90
27270;DHT22;14769;56.934;24.176;2022-08-01T03:48:48;15.90;99.90
27270;DHT22;14769;56.934;24.176;2022-08-01T03:49:53;15.90;99.90
27270;DHT22;14769;56.934;24.176;2022-08-01T03:50:58;15.90;99.90
27270;DHT22;14769;56.934;24.176;2022-08-01T03:52:04;15.90;99.90
27270;DHT22;14769;56.934;24.176;2022-08-01T03:53:10;15.90;99.90
27270;DHT22;14769;56.934;24.176;2022-08-01T03:54:15;15.90;99.90
27270;DHT22;14769;56.934;24.176;2022-08-01T03:55:18;15.90;99.90
27270;DHT22;14769;56.934;24.176;2022-08-01T03:56:23;15.90;99.90
27270;DHT22;14769;56.934;24.176;2022-08-01T03:57:28;15.90;99.90
27270;DHT22;14769;56.934;24.176;2022-08-01T03:58:39;15.90;99.90
27270;DHT22;14769;56.934;24.176;2022-08-01T03:59:42;15.90;99.90
27270;DHT22;14769;56.934;24.176;2022-08-01T04:00:45;15.90;99.90
27270;DHT22;14769;56.934;24.176;2022-08-01T04:01:48;15.90;99.90
27270;DHT22;14769;56.934;24.176;2022-08-01T04:02:52;15.90;99.90
27270;DHT22;14769;56.934;24.176;2022-08-01T04:03:54;15.90;99.90
27270;DHT22;14769;56.934;24.176;2022-08-01T04:04:56;15.90;99.90
27270;DHT22;14769;56.934;24.176;2022-08-01T04:05:58;16.00;99.90
27270;DHT22;14769;56.934;24.176;2022-08-01T04:07:02;16.00;99.90
27270;DHT22;14769;56.934;24.176;2022-08-01T04:08:08;16.00;99.90
27270;DHT22;14769;56.934;24.176;2022-08-01T04:09:10;16.00;99.90
27270;DHT22;14769;56.934;24.176;2022-08-01T04:10:14;16.00;99.90
27270;DHT22;14769;56.934;24.176;2022-08-01T04:11:16;16.00;99.90
27270;DHT22;14769;56.934;24.176;2022-08-01T04:12:18;16.00;99.90
27270;DHT22;14769;56.934;24.176;2022-08-01T04:13:20;16.00;99.90
27270;DHT22;14769;56.934;24.176;2022-08-01T04:14:22;16.00;99.90
27270;DHT22;14769;56.934;24.176;2022-08-01T04:15:24;16.00;99.90
27270;DHT22;14769;56.934;24.176;2022-08-01T04:16:26;16.10;99.90
27270;DHT22;14769;56.934;24.176;2022-08-01T04:17:28;16.10;99.90
27270;DHT22;14769;56.934;24.176;2022-08-01T04:18:29;16.10;99.90
27270;DHT22;14769;56.934;24.176;2022-08-01T04:19:31;16.10;99.90
27270;DHT22;14769;56.934;24.176;2022-08-01T04:20:33;16.10;99.90
27270;DHT22;14769;56.934;24.176;2022-08-01T04:21:37;16.10;99.90
27270;DHT22;14769;56.934;24.176;2022-08-01T04:22:39;16.10;99.90
27270;DHT22;14769;56.934;24.176;2022-08-01T04:23:43;16.10;99.90
27270;DHT22;14769;56.934;24.176;2022-08-01T04:24:48;16.10;99.90
27270;DHT22;14769;56.934;24.176;2022-08-01T04:25:57;16.10;99.90
27270;DHT22;14769;56.934;24.176;2022-08-01T04:27:02;16.10;99.90
27270;DHT22;14769;56.934;24.176;2022-08-01T04:28:07;16.10;99.90
27270;DHT22;14769;56.934;24.176;2022-08-01T04:29:14;16.10;99.90
27270;DHT22;14769;56.934;24.176;2022-08-01T04:30:27;16.10;99.90
27270;DHT22;14769;56.934;24.176;2022-08-01T04:31:31;16.10;99.90
27270;DHT22;14769;56.934;24.176;2022-08-01T04:32:36;16.10;99.90
27270;DHT22;14769;56.934;24.176;2022-08-01T04:33:46;16.10;99.90
27270;DHT22;14769;56.934;24.176;2022-08-01T04:34:50;16.10;99.90
27270;DHT22;14769;56.934;24.176;2022-08-01T04:35:52;16.10;99.90
27270;DHT22;14769;56.934;24.176;2022-08-01T04:37:05;16.20;99.90
27270;DHT22;14769;56.934;24.176;2022-08-01T04:38:10;16.10;99.90
27270;DHT22;14769;56.934;24.176;2022-08-01T04:39:12;16.10;99.90
27270;DHT22;14769;56.934;24.176;2022-08-01T04:40:16;16.10;99.90
27270;DHT22;14769;56.934;24.176;2022-08-01T04:41:18;16.10;99.90
27270;DHT22;14769;56.934;24.176;2022-08-01T04:42:21;16.20;99.90
27270;DHT22;14769;56.934;24.176;2022-08-01T04:43:30;16.10;99.90
27270;DHT22;14769;56.934;24.176;2022-08-01T04:44:33;16.20;99.90
27270;DHT22;14769;56.934;24.176;2022-08-01T04:45:36;16.20;99.90
27270;DHT22;14769;56.934;24.176;2022-08-01T04:46:39;16.20;99.90
27270;DHT22;14769;56.934;24.176;2022-08-01T04:47:42;16.20;99.90
27270;DHT22;14769;56.934;24.176;2022-08-01T04:48:45;16.20;99.90
27270;DHT22;14769;56.934;24.176;2022-08-01T04:49:47;16.20;99.90
27270;DHT22;14769;56.934;24.176;2022-08-01T04:50:50;16.20;99.90
27270;DHT22;14769;56.934;24.176;2022-08-01T04:51:55;16.20;99.90
27270;DHT22;14769;56.934;24.176;2022-08-01T04:52:59;16.20;99.90
27270;DHT22;14769;56.934;24.176;2022-08-01T04:54:01;16.20;99.90
27270;DHT22;14769;56.934;24.176;2022-08-01T04:55:04;16.20;99.90
27270;DHT22;14769;56.934;24.176;2022-08-01T04:56:07;16.20;99.90
27270;DHT22;14769;56.934;24.176;2022-08-01T04:57:10;16.20;99.90
27270;DHT22;14769;56.934;24.176;2022-08-01T04:58:12;16.20;99.90
27270;DHT22;14769;56.934;24.176;2022-08-01T04:59:19;16.20;99.90
27270;DHT22;14769;56.934;24.176;2022-08-01T05:00:40;16.20;99.90
27270;DHT22;14769;56.934;24.176;2022-08-01T05:01:42;16.20;99.90
27270;DHT22;14769;56.934;24.176;2022-08-01T05:02:44;16.20;99.90
27270;DHT22;14769;56.934;24.176;2022-08-01T05:03:46;16.20;99.90
27270;DHT22;14769;56.934;24.176;2022-08-01T05:04:49;16.20;99.90
27270;DHT22;14769;56.934;24.176;2022-08-01T05:05:51;16.20;99.90
27270;DHT22;14769;56.934;24.176;2022-08-01T05:06:53;16.20;99.90
27270;DHT22;14769;56.934;24.176;2022-08-01T05:07:55;16.20;99.90
27270;DHT22;14769;56.934;24.176;2022-08-01T05:08:57;16.20;99.90
27270;DHT22;14769;56.934;24.176;2022-08-01T05:09:59;16.20;99.90
27270;DHT22;14769;56.934;24.176;2022-08-01T05:11:06;16.30;99.90
27270;DHT22;14769;56.934;24.176;2022-08-01T05:12:08;16.30;99.90
27270;DHT22;14769;56.934;24.176;2022-08-01T05:13:10;16.20;99.90
27270;DHT22;14769;56.934;24.176;2022-08-01T05:14:12;16.20;99.90
27270;DHT22;14769;56.934;24.176;2022-08-01T05:15:14;16.30;99.90
27270;DHT22;14769;56.934;24.176;2022-08-01T05:16:17;16.30;99.90
27270;DHT22;14769;56.934;24.176;2022-08-01T05:17:19;16.30;99.90
27270;DHT22;14769;56.934;24.176;2022-08-01T05:18:21;16.30;99.90
27270;DHT22;14769;56.934;24.176;2022-08-01T05:19:30;16.30;99.90
27270;DHT22;14769;56.934;24.176;2022-08-01T05:20:35;16.30;99.90
27270;DHT22;14769;56.934;24.176;2022-08-01T05:21:38;16.30;99.90
27270;DHT22;14769;56.934;24.176;2022-08-01T05:22:40;16.30;99.90
27270;DHT22;14769;56.934;24.176;2022-08-01T05:23:42;16.30;99.90
27270;DHT22;14769;56.934;24.176;2022-08-01T05:24:44;16.30;99.90
27270;DHT22;14769;56.934;24.176;2022-08-01T05:25:49;16.30;99.90
27270;DHT22;14769;56.934;24.176;2022-08-01T05:26:59;16.30;99.90
27270;DHT22;14769;56.934;24.176;2022-08-01T05:28:01;16.30;99.90
27270;DHT22;14769;56.934;24.176;2022-08-01T05:29:04;16.40;99.90
27270;DHT22;14769;56.934;24.176;2022-08-01T05:30:09;16.30;99.90
27270;DHT22;14769;56.934;24.176;2022-08-01T05:31:11;16.30;99.90
27270;DHT22;14769;56.934;24.176;2022-08-01T05:32:13;16.30;99.90
27270;DHT22;14769;56.934;24.176;2022-08-01T05:33:14;16.40;99.90
27270;DHT22;14769;56.934;24.176;2022-08-01T05:34:17;16.40;99.90
27270;DHT22;14769;56.934;24.176;2022-08-01T05:35:19;16.40;99.90
27270;DHT22;14769;56.934;24.176;2022-08-01T05:36:20;16.40;99.90
27270;DHT22;14769;56.934;24.176;2022-08-01T05:37:22;16.40;99.90
27270;DHT22;14769;56.934;24.176;2022-08-01T05:38:24;16.40;99.90
27270;DHT22;14769;56.934;24.176;2022-08-01T05:39:26;16.40;99.90
27270;DHT22;14769;56.934;24.176;2022-08-01T05:40:28;16.40;99.90
27270;DHT22;14769;56.934;24.176;2022-08-01T05:41:30;16.50;99.90
27270;DHT22;14769;56.934;24.176;2022-08-01T05:42:32;16.50;99.90
27270;DHT22;14769;56.934;24.176;2022-08-01T05:43:34;16.50;99.90
27270;DHT22;14769;56.934;24.176;2022-08-01T05:44:35;16.50;99.90
27270;DHT22;14769;56.934;24.176;2022-08-01T05:45:37;16.50;99.90
27270;DHT22;14769;56.934;24.176;2022-08-01T05:46:39;16.50;99.90
27270;DHT22;14769;56.934;24.176;2022-08-01T05:47:41;16.50;99.90
27270;DHT22;14769;56.934;24.176;2022-08-01T05:48:43;16.50;99.90
27270;DHT22;14769;56.934;24.176;2022-08-01T05:49:45;16.50;99.90
27270;DHT22;14769;56.934;24.176;2022-08-01T05:50:47;16.50;99.90
27270;DHT22;14769;56.934;24.176;2022-08-01T05:51:49;16.50;99.90
27270;DHT22;14769;56.934;24.176;2022-08-01T05:52:51;16.50;99.90
27270;DHT22;14769;56.934;24.176;2022-08-01T05:53:53;16.50;99.90
27270;DHT22;14769;56.934;24.176;2022-08-01T05:54:55;16.50;99.90
27270;DHT22;14769;56.934;24.176;2022-08-01T05:55:57;16.50;99.90
27270;DHT22;14769;56.934;24.176;2022-08-01T05:56:58;16.50;99.90
27270;DHT22;14769;56.934;24.176;2022-08-01T05:58:03;16.50;99.90
27270;DHT22;14769;56.934;24.176;2022-08-01T05:59:05;16.50;99.90
27270;DHT22;14769;56.934;24.176;2022-08-01T06:00:07;16.50;99.90
27270;DHT22;14769;56.934;24.176;2022-08-01T06:01:09;16.50;99.90
27270;DHT22;14769;56.934;24.176;2022-08-01T06:02:12;16.50;99.90
27270;DHT22;14769;56.934;24.176;2022-08-01T06:03:13;16.50;99.90
27270;DHT22;14769;56.934;24.176;2022-08-01T06:04:15;16.40;99.90
27270;DHT22;14769;56.934;24.176;2022-08-01T06:05:17;16.50;99.90
27270;DHT22;14769;56.934;24.176;2022-08-01T06:06:21;16.50;99.90
27270;DHT22;14769;56.934;24.176;2022-08-01T06:07:26;16.50;99.90
27270;DHT22;14769;56.934;24.176;2022-08-01T06:08:28;16.50;99.90
27270;DHT22;14769;56.934;24.176;2022-08-01T06:09:30;16.50;99.90
27270;DHT22;14769;56.934;24.176;2022-08-01T06:10:32;16.50;99.90
27270;DHT22;14769;56.934;24.176;2022-08-01T06:11:34;16.50;99.90
27270;DHT22;14769;56.934;24.176;2022-08-01T06:12:36;16.50;99.90
27270;DHT22;14769;56.934;24.176;2022-08-01T06:13:38;16.50;99.90
27270;DHT22;14769;56.934;24.176;2022-08-01T06:14:49;16.50;99.90
27270;DHT22;14769;56.934;24.176;2022-08-01T06:15:51;16.50;99.90
27270;DHT22;14769;56.934;24.176;2022-08-01T06:16:53;16.50;99.90
27270;DHT22;14769;56.934;24.176;2022-08-01T06:17:55;16.50;99.90
27270;DHT22;14769;56.934;24.176;2022-08-01T06:18:57;16.50;99.90
27270;DHT22;14769;56.934;24.176;2022-08-01T06:19:59;16.50;99.90
27270;DHT22;14769;56.934;24.176;2022-08-01T06:21:01;16.50;99.90
27270;DHT22;14769;56.934;24.176;2022-08-01T06:22:03;16.50;99.90
27270;DHT22;14769;56.934;24.176;2022-08-01T06:23:05;16.50;99.90
27270;DHT22;14769;56.934;24.176;2022-08-01T06:24:27;16.50;99.90
27270;DHT22;14769;56.934;24.176;2022-08-01T06:25:29;16.50;99.90
27270;DHT22;14769;56.934;24.176;2022-08-01T06:26:31;16.50;99.90
27270;DHT22;14769;56.934;24.176;2022-08-01T06:27:34;16.50;99.90
27270;DHT22;14769;56.934;24.176;2022-08-01T06:28:37;16.50;99.90
27270;DHT22;14769;56.934;24.176;2022-08-01T06:29:40;16.50;99.90
27270;DHT22;14769;56.934;24.176;2022-08-01T06:30:54;16.50;99.90
27270;DHT22;14769;56.934;24.176;2022-08-01T06:31:56;16.50;99.90
27270;DHT22;14769;56.934;24.176;2022-08-01T06:32:58;16.50;99.90
27270;DHT22;14769;56.934;24.176;2022-08-01T06:34:01;16.50;99.90
27270;DHT22;14769;56.934;24.176;2022-08-01T06:35:04;16.50;99.90
27270;DHT22;14769;56.934;24.176;2022-08-01T06:36:08;16.50;99.90
27270;DHT22;14769;56.934;24.176;2022-08-01T06:37:10;16.50;99.90
27270;DHT22;14769;56.934;24.176;2022-08-01T06:38:15;16.50;99.90
27270;DHT22;14769;56.934;24.176;2022-08-01T06:39:17;16.60;99.90
27270;DHT22;14769;56.934;24.176;2022-08-01T06:40:19;16.50;99.90
27270;DHT22;14769;56.934;24.176;2022-08-01T06:41:21;16.60;99.90
27270;DHT22;14769;56.934;24.176;2022-08-01T06:42:24;16.60;99.90
27270;DHT22;14769;56.934;24.176;2022-08-01T06:43:27;16.60;99.90
27270;DHT22;14769;56.934;24.176;2022-08-01T06:44:29;16.60;99.90
27270;DHT22;14769;56.934;24.176;2022-08-01T06:45:31;16.60;99.90
27270;DHT22;14769;56.934;24.176;2022-08-01T06:46:34;16.60;99.90
27270;DHT22;14769;56.934;24.176;2022-08-01T06:47:37;16.60;99.90
27270;DHT22;14769;56.934;24.176;2022-08-01T06:48:39;16.60;99.90
27270;DHT22;14769;56.934;24.176;2022-08-01T06:49:42;16.60;99.90
27270;DHT22;14769;56.934;24.176;2022-08-01T06:50:43;16.60;99.90